TimeAEST,TemperatureF,Dew PointF,Humidity,Sea Level PressureIn,VisibilityMPH,Wind Direction,Wind SpeedMPH,Gust SpeedMPH,PrecipitationIn,Events,Conditions,WindDirDegrees,DateUTC
12:00 AM,72,,,30.03,,East,13.8,,,,,100,2013-04-08 14:00:00
12:00 AM,-9999,-9999,N/A,30.04,-9999.0,East,13.8,-,N/A,,Unknown,100,2013-04-08 14:00:00
12:04 AM,-9999,-9999,N/A,30.01,-9999.0,East,17.3,29.9,N/A,,Unknown,90,2013-04-08 14:04:00
12:30 AM,-9999,-9999,N/A,30.01,-9999.0,ESE,18.4,-,N/A,,Unknown,120,2013-04-08 14:30:00
1:00 AM,-9999,-9999,N/A,30.01,-9999.0,SSE,19.6,-,N/A,,Unknown,150,2013-04-08 15:00:00
1:30 AM,73.4,73.4,100,29.98,-9999.0,SE,21.9,-,N/A,,Unknown,140,2013-04-08 15:30:00
2:00 AM,73.4,73.4,100,29.98,-9999.0,SE,26.5,-,N/A,,Unknown,130,2013-04-08 16:00:00
2:30 AM,75.2,73.4,94,29.98,-9999.0,SE,24.2,-,N/A,,Unknown,140,2013-04-08 16:30:00
3:00 AM,74,72,92,29.96,,ESE,25.3,,,,,120,2013-04-08 17:00:00
3:00 AM,75.2,71.6,89,29.95,-9999.0,ESE,25.3,-,N/A,,Unknown,120,2013-04-08 17:00:00
3:30 AM,75.2,73.4,94,29.95,-9999.0,SE,23.0,-,N/A,,Unknown,130,2013-04-08 17:30:00
4:00 AM,75.2,73.4,94,29.95,-9999.0,SE,25.3,-,N/A,,Unknown,130,2013-04-08 18:00:00
4:30 AM,75.2,71.6,89,29.95,-9999.0,SE,27.6,-,N/A,,Unknown,130,2013-04-08 18:30:00
5:00 AM,75.2,71.6,89,29.95,-9999.0,SE,27.6,-,N/A,,Unknown,130,2013-04-08 19:00:00
5:30 AM,75.2,71.6,89,29.95,-9999.0,ESE,26.5,-,N/A,,Unknown,120,2013-04-08 19:30:00
6:00 AM,73,71,92,29.97,,SE,29.9,,,,,130,2013-04-08 20:00:00
6:00 AM,73.4,71.6,94,29.98,-9999.0,SE,29.9,-,N/A,,Unknown,130,2013-04-08 20:00:00
6:30 AM,75.2,73.4,94,29.98,-9999.0,SE,26.5,-,N/A,,Unknown,130,2013-04-08 20:30:00
7:00 AM,77.0,73.4,89,29.98,-9999.0,SE,24.2,-,N/A,,Unknown,130,2013-04-08 21:00:00
7:30 AM,77.0,71.6,83,29.98,-9999.0,ESE,24.2,-,N/A,,Unknown,120,2013-04-08 21:30:00
8:00 AM,77.0,71.6,83,29.98,-9999.0,ESE,23.0,-,N/A,,Unknown,120,2013-04-08 22:00:00
8:30 AM,77.0,73.4,89,30.01,-9999.0,ESE,26.5,-,N/A,,Unknown,120,2013-04-08 22:30:00
9:00 AM,78,73,79,30.02,,ESE,25.3,,,,,120,2013-04-08 23:00:00
9:00 AM,78.8,73.4,83,30.01,-9999.0,ESE,25.3,-,N/A,,Unknown,110,2013-04-08 23:00:00
9:30 AM,78.8,71.6,78,30.01,-9999.0,ESE,27.6,-,N/A,,Unknown,120,2013-04-08 23:30:00
10:00 AM,77.0,71.6,83,30.01,-9999.0,ESE,27.6,-,N/A,,Unknown,110,2013-04-09 00:00:00
10:15 AM,75.2,75.2,100,30.01,-9999.0,ESE,27.6,39.1,N/A,,Unknown,110,2013-04-09 00:15:00
10:30 AM,77.0,73.4,89,30.01,-9999.0,ESE,29.9,-,N/A,,Unknown,120,2013-04-09 00:30:00
11:00 AM,78.8,73.4,83,30.01,-9999.0,ESE,29.9,-,N/A,,Unknown,120,2013-04-09 01:00:00
11:30 AM,78.8,73.4,83,30.01,-9999.0,ESE,26.5,-,N/A,,Unknown,120,2013-04-09 01:30:00
11:47 AM,77.0,73.4,89,29.98,-9999.0,East,20.7,32.2,N/A,,Unknown,90,2013-04-09 01:47:00
11:51 AM,77.0,73.4,89,29.98,-9999.0,SE,23.0,-,N/A,,Unknown,130,2013-04-09 01:51:00
12:00 PM,75,72,86,29.99,,ESE,25.3,,,,,120,2013-04-09 02:00:00
12:05 PM,73.4,71.6,94,29.98,-9999.0,East,32.2,-,N/A,,Unknown,90,2013-04-09 02:05:00
12:26 PM,-9999,-9999,N/A,29.98,-9999.0,East,31.1,42.6,N/A,,Unknown,90,2013-04-09 02:26:00
12:30 PM,-9999,-9999,N/A,29.98,-9999.0,East,33.4,-,N/A,,Unknown,90,2013-04-09 02:30:00
12:49 PM,71.6,71.6,100,29.95,-9999.0,East,28.8,40.3,N/A,,Unknown,90,2013-04-09 02:49:00
1:00 PM,73.4,73.4,100,29.95,-9999.0,East,26.5,-,N/A,,Unknown,90,2013-04-09 03:00:00
1:30 PM,73.4,73.4,100,29.95,-9999.0,East,31.1,-,N/A,,Unknown,100,2013-04-09 03:30:00
2:00 PM,73.4,71.6,94,29.92,-9999.0,East,26.5,-,N/A,,Unknown,90,2013-04-09 04:00:00
2:24 PM,73.4,73.4,100,29.92,-9999.0,ESE,32.2,-,N/A,,Unknown,120,2013-04-09 04:24:00
2:30 PM,73.4,73.4,100,29.92,-9999.0,ESE,31.1,-,N/A,,Unknown,120,2013-04-09 04:30:00
3:00 PM,74,72,94,29.93,,ESE,21.9,,,,,110,2013-04-09 05:00:00
3:00 PM,73.4,73.4,100,29.92,-9999.0,ESE,21.9,-,N/A,,Unknown,110,2013-04-09 05:00:00
3:30 PM,75.2,73.4,94,29.92,-9999.0,East,27.6,-,N/A,,Unknown,100,2013-04-09 05:30:00
4:00 PM,75.2,73.4,94,29.92,-9999.0,East,26.5,-,N/A,,Unknown,90,2013-04-09 06:00:00
4:30 PM,75.2,73.4,94,29.92,-9999.0,ESE,21.9,-,N/A,,Unknown,110,2013-04-09 06:30:00
4:59 PM,75.2,73.4,94,29.89,-9999.0,East,24.2,35.7,N/A,,Unknown,100,2013-04-09 06:59:00
5:00 PM,75.2,73.4,94,29.92,-9999.0,East,25.3,38.0,N/A,,Unknown,100,2013-04-09 07:00:00
5:30 PM,75.2,73.4,94,29.92,-9999.0,ESE,23.0,-,N/A,,Unknown,110,2013-04-09 07:30:00
6:00 PM,76,73,88,29.92,,ESE,20.7,,,,,110,2013-04-09 08:00:00
6:00 PM,77.0,73.4,89,29.92,-9999.0,ESE,20.7,-,N/A,,Unknown,110,2013-04-09 08:00:00
6:30 PM,77.0,71.6,83,29.92,-9999.0,ESE,25.3,-,N/A,,Unknown,120,2013-04-09 08:30:00
7:00 PM,75.2,71.6,89,29.92,-9999.0,ESE,23.0,-,N/A,,Unknown,120,2013-04-09 09:00:00
7:28 PM,75.2,71.6,89,29.92,-9999.0,ESE,25.3,36.8,N/A,,Unknown,120,2013-04-09 09:28:00
7:34 PM,73.4,69.8,88,29.92,-9999.0,East,31.1,42.6,N/A,,Unknown,100,2013-04-09 09:34:00
8:00 PM,73.4,73.4,100,29.95,-9999.0,East,28.8,-,N/A,,Unknown,90,2013-04-09 10:00:00
8:30 PM,71.6,71.6,100,29.95,-9999.0,East,31.1,-,N/A,,Unknown,80,2013-04-09 10:30:00
9:00 PM,74,73,96,29.94,,East,29.9,,,,,100,2013-04-09 11:00:00
9:00 PM,73.4,73.4,100,29.92,-9999.0,East,29.9,-,N/A,,Unknown,100,2013-04-09 11:00:00
9:30 PM,73.4,71.6,94,29.95,-9999.0,ESE,25.3,-,N/A,,Unknown,110,2013-04-09 11:30:00
10:00 PM,73.4,73.4,100,29.95,-9999.0,ESE,23.0,-,N/A,,Unknown,120,2013-04-09 12:00:00
10:30 PM,73.4,73.4,100,29.92,-9999.0,ESE,29.9,-,N/A,,Unknown,110,2013-04-09 12:30:00
11:00 PM,73.4,73.4,100,29.95,-9999.0,ESE,26.5,-,N/A,,Unknown,110,2013-04-09 13:00:00
11:26 PM,73.4,73.4,100,29.92,-9999.0,ENE,27.6,-,N/A,,Unknown,70,2013-04-09 13:26:00
11:30 PM,73.4,71.6,94,29.92,-9999.0,ENE,27.6,-,N/A,,Unknown,70,2013-04-09 13:30:00